Time;durP1;ratioP1;P1;durP2;ratioP2;P2;SDS_P1;SDS_P2;PMS_P1;PMS_P2;Temp;Humidity;BMP_temperature;BMP_pressure;BME280_temperature;BME280_humidity;BME280_pressure;Samples;Min_cycle;Max_cycle;Signal;HPM_P1;HPM_P2
2022/12/03 00:00:47;;;;;;;65.57;26.80;;;;;;;-2.40;85.04;101528.11;1744313;81;25441;-60
2022/12/03 00:03:15;;;;;;;72.70;30.62;;;;;;;-2.37;85.00;101527.70;1744368;82;26092;-61
2022/12/03 00:05:41;;;;;;;75.22;29.67;;;;;;;-2.37;84.96;101525.57;1744191;82;25543;-61
2022/12/03 00:08:07;;;;;;;89.00;34.70;;;;;;;-2.35;84.89;101528.84;1744274;82;25464;-61
2022/12/03 00:10:33;;;;;;;79.22;31.45;;;;;;;-2.36;84.75;101528.03;1744256;81;25580;-61
2022/12/03 00:12:59;;;;;;;76.85;32.10;;;;;;;-2.38;84.74;101524.76;1744347;81;25387;-61
2022/12/03 00:15:26;;;;;;;81.80;31.23;;;;;;;-2.39;84.77;101517.81;1744290;82;27471;-61
2022/12/03 00:17:52;;;;;;;82.55;30.82;;;;;;;-2.38;84.76;101516.81;1744127;82;25609;-61
2022/12/03 00:20:22;;;;;;;76.20;30.72;;;;;;;-2.37;84.71;101520.27;1744282;82;25561;-62
2022/12/03 00:22:49;;;;;;;80.30;30.27;;;;;;;-2.37;84.77;101516.30;1744227;82;25618;-62
2022/12/03 00:25:17;;;;;;;81.65;32.65;;;;;;;-2.37;84.79;101513.64;1744324;82;25534;-63
2022/12/03 00:27:43;;;;;;;75.85;28.77;;;;;;;-2.36;84.86;101512.13;1744298;82;27483;-61
2022/12/03 00:30:11;;;;;;;77.22;30.88;;;;;;;-2.34;84.87;101519.89;1744162;82;25435;-61
2022/12/03 00:32:38;;;;;;;77.55;30.70;;;;;;;-2.34;84.79;101514.08;1744268;82;25412;-61
2022/12/03 00:35:05;;;;;;;71.07;29.72;;;;;;;-2.34;84.78;101510.61;1744237;82;27649;-61
2022/12/03 00:37:33;;;;;;;78.75;32.73;;;;;;;-2.36;84.58;101513.45;1744257;82;25604;-61
2022/12/03 00:40:01;;;;;;;71.53;28.65;;;;;;;-2.38;84.58;101514.16;1744316;82;27461;-62
2022/12/03 00:42:28;;;;;;;72.47;28.85;;;;;;;-2.36;84.68;101513.45;1744178;82;25495;-62
2022/12/03 00:44:54;;;;;;;76.40;29.02;;;;;;;-2.37;84.83;101506.50;1744277;82;25633;-63
2022/12/03 00:47:20;;;;;;;75.22;30.62;;;;;;;-2.34;84.89;101505.31;1744179;82;25666;-63
2022/12/03 00:49:46;;;;;;;70.42;30.35;;;;;;;-2.32;84.87;101512.05;1744259;82;25641;-61
2022/12/03 00:52:13;;;;;;;68.62;28.02;;;;;;;-2.30;84.90;101501.25;1744245;82;27470;-62
2022/12/03 00:54:39;;;;;;;66.70;27.98;;;;;;;-2.29;84.79;101508.20;1744143;82;25432;-62
2022/12/03 00:57:05;;;;;;;67.15;28.92;;;;;;;-2.30;84.73;101507.87;1744256;82;25546;-61
2022/12/03 00:59:31;;;;;;;69.95;28.20;;;;;;;-2.28;84.80;101509.85;1744229;82;25557;-61
2022/12/03 01:01:58;;;;;;;66.72;28.65;;;;;;;-2.29;84.80;101507.69;1744322;82;25649;-61
2022/12/03 01:04:24;;;;;;;76.47;30.90;;;;;;;-2.27;84.83;101511.47;1744291;82;28057;-61
2022/12/03 01:06:50;;;;;;;64.17;27.73;;;;;;;-2.26;84.82;101503.84;1744158;81;25614;-61
2022/12/03 01:09:16;;;;;;;69.25;27.52;;;;;;;-2.26;84.69;101496.70;1744256;82;25439;-62
2022/12/03 01:11:42;;;;;;;69.35;27.77;;;;;;;-2.28;84.62;101502.71;1744247;82;25674;-62
2022/12/03 01:14:14;;;;;;;64.05;27.32;;;;;;;-2.29;84.62;101498.41;1744263;82;25448;-62
2022/12/03 01:16:41;;;;;;;67.87;28.42;;;;;;;-2.26;84.75;101499.87;1743501;82;28024;-63
2022/12/03 01:19:09;;;;;;;66.17;27.98;;;;;;;-2.26;84.68;101498.03;1741778;82;25595;-62
2022/12/03 01:21:37;;;;;;;66.25;27.52;;;;;;;-2.27;84.62;101496.38;1741875;82;25566;-63
2022/12/03 01:24:04;;;;;;;64.77;27.05;;;;;;;-2.26;84.65;101495.89;1741838;82;25485;-62
2022/12/03 01:26:30;;;;;;;65.92;27.25;;;;;;;-2.28;84.46;101493.95;1741896;82;25636;-63
2022/12/03 01:28:57;;;;;;;58.33;26.40;;;;;;;-2.28;84.45;101498.73;1741877;82;27522;-62
2022/12/03 01:34:07;;;;;;;65.37;27.93;;;;;;;-2.29;84.38;101497.08;1741845;82;25378;-62
2022/12/03 01:36:34;;;;;;;56.68;24.98;;;;;;;-2.30;84.38;101498.60;1741782;82;25481;-63
2022/12/03 01:39:02;;;;;;;62.62;27.42;;;;;;;-2.29;84.49;101499.73;1741813;82;25527;-63
2022/12/03 01:41:29;;;;;;;55.38;24.92;;;;;;;-2.28;84.50;101493.95;1741865;82;27452;-62
2022/12/03 01:43:57;;;;;;;58.40;26.00;;;;;;;-2.29;84.47;101488.33;1741772;82;25629;-62
2022/12/03 01:46:28;;;;;;;56.25;26.17;;;;;;;-2.29;84.46;101486.48;1741844;82;25571;-62
2022/12/03 01:48:55;;;;;;;55.15;24.67;;;;;;;-2.29;84.48;101489.65;1741445;82;25558;-63
2022/12/03 01:51:22;;;;;;;59.53;24.77;;;;;;;-2.30;84.32;101485.34;1741843;82;25536;-62
2022/12/03 01:53:49;;;;;;;52.58;24.02;;;;;;;-2.32;84.25;101489.52;1741798;82;27559;-61
2022/12/03 01:56:17;;;;;;;51.53;23.90;;;;;;;-2.33;84.20;101483.92;1741718;82;25538;-61
2022/12/03 01:58:45;;;;;;;48.65;24.25;;;;;;;-2.33;84.25;101488.41;1741863;82;25447;-61
2022/12/03 02:01:15;;;;;;;52.38;24.43;;;;;;;-2.33;84.28;101481.79;1741977;82;25552;-62
2022/12/03 02:03:44;;;;;;;53.02;23.18;;;;;;;-2.34;84.22;101485.44;1742051;82;25404;-61
2022/12/03 02:06:20;;;;;;;55.78;24.95;;;;;;;-2.36;84.17;101476.35;1741979;82;27580;-61
2022/12/03 02:08:47;;;;;;;53.80;23.32;;;;;;;-2.36;84.26;101485.63;1741924;82;25642;-61
2022/12/03 02:11:31;;;;;;;50.67;24.18;;;;;;;-2.36;84.41;101481.66;1742009;82;25555;-62
2022/12/03 02:14:08;;;;;;;50.65;24.47;;;;;;;-2.33;84.44;101483.92;1741989;82;25528;-61
2022/12/03 02:16:37;;;;;;;51.75;23.55;;;;;;;-2.32;84.30;101490.84;1741387;81;25480;-61
2022/12/03 02:19:09;;;;;;;52.83;24.23;;;;;;;-2.34;84.29;101482.79;1744367;82;27564;-62
2022/12/03 02:21:53;;;;;;;44.15;22.62;;;;;;;-2.35;84.19;101483.79;1744407;82;25637;-61
2022/12/03 02:24:43;;;;;;;48.25;23.50;;;;;;;-2.35;84.17;101485.95;1743690;82;25497;-61
2022/12/03 02:27:09;;;;;;;49.48;23.90;;;;;;;-2.34;84.26;101490.22;1743297;82;26182;-61
2022/12/03 02:29:35;;;;;;;47.83;24.40;;;;;;;-2.34;84.22;101486.25;1744359;82;25527;-61
2022/12/03 02:32:02;;;;;;;44.70;23.40;;;;;;;-2.33;84.24;101484.44;1744309;82;27605;-62
2022/12/03 02:34:39;;;;;;;47.15;22.82;;;;;;;-2.34;84.13;101483.59;1744263;82;25459;-62
2022/12/03 02:37:09;;;;;;;55.70;25.20;;;;;;;-2.35;84.20;101481.98;1744341;82;25385;-62
2022/12/03 02:39:40;;;;;;;54.42;25.43;;;;;;;-2.34;84.24;101482.27;1743139;82;25631;-62
2022/12/03 02:44:52;;;;;;;43.85;21.48;;;;;;;-2.33;84.17;101486.58;1744348;82;27504;-62
2022/12/03 02:47:20;;;;;;;47.80;23.32;;;;;;;-2.31;84.22;101490.36;1744257;82;25387;-62
2022/12/03 02:49:48;;;;;;;48.10;23.35;;;;;;;-2.32;84.20;101488.70;1744350;82;25562;-62
2022/12/03 02:52:14;;;;;;;48.55;23.20;;;;;;;-2.31;84.28;101488.52;1744383;82;25579;-62
2022/12/03 02:54:41;;;;;;;47.35;22.40;;;;;;;-2.30;84.27;101491.49;1744440;82;25592;-63
2022/12/03 02:57:07;;;;;;;43.92;21.80;;;;;;;-2.28;84.37;101483.34;1744331;82;27272;-62
2022/12/03 02:59:34;;;;;;;48.83;23.35;;;;;;;-2.25;84.42;101482.94;1744179;82;25602;-61
2022/12/03 03:02:00;;;;;;;46.77;23.60;;;;;;;-2.25;84.20;101481.61;1744299;82;25436;-61
2022/12/03 03:04:28;;;;;;;46.25;23.30;;;;;;;-2.25;84.18;101478.95;1744275;82;25558;-61
2022/12/03 03:06:54;;;;;;;51.77;23.38;;;;;;;-2.26;84.10;101483.45;1744360;81;25613;-61
2022/12/03 03:09:21;;;;;;;45.63;22.48;;;;;;;-2.26;84.16;101491.41;1744276;82;27531;-61
2022/12/03 03:11:47;;;;;;;44.25;22.22;;;;;;;-2.26;84.09;101490.08;1744226;82;25554;-61
2022/12/03 03:14:13;;;;;;;44.55;22.82;;;;;;;-2.26;84.10;101478.15;1744299;82;25569;-61
2022/12/03 03:16:40;;;;;;;43.85;23.20;;;;;;;-2.25;84.11;101477.63;1744265;82;25554;-61
2022/12/03 03:19:06;;;;;;;44.58;22.73;;;;;;;-2.24;84.26;101475.82;1744365;82;25613;-62
2022/12/03 03:21:33;;;;;;;47.17;23.42;;;;;;;-2.23;84.25;101476.95;1744316;82;27532;-60
2022/12/03 03:23:59;;;;;;;44.98;22.65;;;;;;;-2.21;84.33;101477.58;1744199;82;25429;-60
2022/12/03 03:26:26;;;;;;;46.00;24.18;;;;;;;-2.20;84.26;101477.87;1744318;82;25381;-60
2022/12/03 03:28:52;;;;;;;44.00;23.27;;;;;;;-2.18;84.18;101479.00;1744279;81;25416;-59
2022/12/03 03:31:22;;;;;;;46.00;22.90;;;;;;;-2.17;84.28;101480.66;1744308;82;25577;-60
2022/12/03 03:33:49;;;;;;;51.37;23.60;;;;;;;-2.16;84.27;101475.64;1744305;82;27548;-60
2022/12/03 03:36:16;;;;;;;44.05;23.83;;;;;;;-2.17;84.24;101473.51;1744272;82;25744;-61
2022/12/03 03:38:43;;;;;;;47.33;22.55;;;;;;;-2.14;84.21;101478.94;1744334;82;25402;-61
2022/12/03 03:41:11;;;;;;;46.23;23.92;;;;;;;-2.12;84.28;101478.23;1744271;82;25547;-64
2022/12/03 03:43:40;;;;;;;47.78;22.48;;;;;;;-2.10;84.25;101477.52;1744349;82;25585;-62
2022/12/03 03:46:07;;;;;;;45.30;23.50;;;;;;;-2.11;84.19;101470.57;1744323;82;28168;-61
2022/12/03 03:48:34;;;;;;;45.63;22.32;;;;;;;-2.10;84.20;101471.70;1744261;82;25390;-61
2022/12/03 03:51:07;;;;;;;46.98;21.97;;;;;;;-2.08;84.16;101475.00;1721260;82;25608;-60
2022/12/03 03:53:32;;;;;;;46.02;24.25;;;;;;;-2.08;84.13;101472.84;1743737;82;25565;-61
2022/12/03 03:55:58;;;;;;;47.65;24.15;;;;;;;-2.07;84.07;101472.64;1744346;82;25386;-59
2022/12/03 03:58:24;;;;;;;58.58;26.20;;;;;;;-2.08;84.04;101470.19;1744312;82;27425;-61
2022/12/03 04:00:51;;;;;;;47.17;24.85;;;;;;;-2.05;84.06;101471.64;1720899;82;25869;-61
2022/12/03 04:03:17;;;;;;;47.27;24.05;;;;;;;-2.05;84.06;101468.99;1744287;82;25481;-60
2022/12/03 04:05:43;;;;;;;46.33;23.47;;;;;;;-2.06;84.04;101472.12;1744227;82;27716;-61
2022/12/03 04:08:10;;;;;;;44.63;23.67;;;;;;;-2.06;84.05;101469.48;1744322;82;25651;-59
2022/12/03 04:13:20;;;;;;;44.13;23.12;;;;;;;-2.06;84.07;101457.55;1744261;82;25463;-60
2022/12/03 04:15:46;;;;;;;46.02;23.62;;;;;;;-2.05;84.04;101454.41;1744266;82;25523;-60
2022/12/03 04:22:38;;;;;;;53.87;25.10;;;;;;;-2.03;84.13;101462.46;1744272;82;25453;-62
2022/12/03 04:23:26;;;;;;;43.58;23.60;;;;;;;-2.03;84.03;101465.62;1739481;82;27518;-60
2022/12/03 04:28:48;;;;;;;47.65;23.70;;;;;;;-2.02;84.11;101465.44;1744403;82;25581;-60
2022/12/03 04:36:46;;;;;;;47.90;23.85;;;;;;;-1.99;84.05;101469.03;1744266;82;27496;-59
2022/12/03 04:39:12;;;;;;;47.13;24.07;;;;;;;-1.98;84.04;101471.97;1744113;82;25368;-59
2022/12/03 04:41:38;;;;;;;52.70;24.85;;;;;;;-1.98;84.04;101473.30;1744209;82;25432;-59
2022/12/03 04:46:49;;;;;;;51.60;24.82;;;;;;;-1.98;83.88;101465.86;1744315;82;25543;-59
2022/12/03 04:49:15;;;;;;;50.48;25.52;;;;;;;-1.98;83.97;101463.20;1744233;82;27607;-59
2022/12/03 04:51:41;;;;;;;49.47;25.37;;;;;;;-1.97;83.96;101455.58;1744169;82;27570;-59
2022/12/03 04:54:07;;;;;;;40.17;22.25;;;;;;;-1.99;83.99;101449.14;1744219;82;25602;-59
2022/12/03 04:56:34;;;;;;;53.30;25.27;;;;;;;-1.95;83.98;101452.21;1744171;82;27628;-59
2022/12/03 04:59:00;;;;;;;47.15;23.67;;;;;;;-1.95;84.00;101457.00;1744208;82;25400;-59
2022/12/03 05:01:26;;;;;;;47.98;23.62;;;;;;;-1.95;84.03;101442.93;1744264;82;28136;-58
2022/12/03 05:03:52;;;;;;;47.13;24.45;;;;;;;-1.94;84.03;101448.52;1744119;82;25374;-58
2022/12/03 05:06:18;;;;;;;52.05;25.85;;;;;;;-1.92;84.00;101449.17;1744201;82;25365;-60
2022/12/03 05:08:45;;;;;;;49.63;24.43;;;;;;;-1.92;83.98;101459.78;1744161;82;25485;-60
2022/12/03 05:11:13;;;;;;;47.08;23.25;;;;;;;-1.91;84.06;101453.44;1744245;82;25558;-59
2022/12/03 05:13:40;;;;;;;49.53;24.27;;;;;;;-1.90;84.06;101447.94;1744379;81;32087;-60
2022/12/03 05:16:07;;;;;;;50.08;25.00;;;;;;;-1.88;84.01;101451.20;1744213;82;25629;-60
2022/12/03 05:18:34;;;;;;;48.63;25.10;;;;;;;-1.89;83.88;101447.42;1743058;82;25615;-60
2022/12/03 05:21:00;;;;;;;48.30;24.90;;;;;;;-1.88;83.90;101445.91;1741775;82;25573;-59
2022/12/03 05:23:26;;;;;;;51.08;25.40;;;;;;;-1.89;83.78;101450.91;1741865;81;25460;-60
2022/12/03 05:25:53;;;;;;;54.55;26.05;;;;;;;-1.89;83.82;101445.61;1741838;82;27520;-60
2022/12/03 05:28:22;;;;;;;43.75;24.12;;;;;;;-1.88;83.91;101441.12;1741749;82;25834;-60
2022/12/03 05:30:48;;;;;;;49.65;24.70;;;;;;;-1.87;83.91;101438.79;1741821;82;25579;-60
2022/12/03 05:33:14;;;;;;;51.53;25.27;;;;;;;-1.86;83.82;101437.75;1741802;82;25613;-61
2022/12/03 05:35:40;;;;;;;47.70;25.23;;;;;;;-1.88;83.75;101437.95;1741863;82;32331;-61
2022/12/03 05:38:06;;;;;;;50.43;25.48;;;;;;;-1.87;83.75;101433.48;1741796;82;27465;-61
2022/12/03 05:40:32;;;;;;;54.03;25.45;;;;;;;-1.88;83.63;101435.81;1741712;82;25598;-61
2022/12/03 05:43:03;;;;;;;48.15;23.80;;;;;;;-1.87;83.65;101436.14;1741834;82;25614;-61
2022/12/03 05:45:32;;;;;;;50.13;25.80;;;;;;;-1.88;83.65;101435.81;1741054;82;25546;-62
2022/12/03 05:48:01;;;;;;;53.30;26.07;;;;;;;-1.88;83.70;101436.63;1741852;82;25565;-61
2022/12/03 05:50:31;;;;;;;49.98;25.80;;;;;;;-1.89;83.62;101435.00;1741945;82;27452;-61
2022/12/03 05:52:58;;;;;;;49.75;25.90;;;;;;;-1.88;83.67;101435.30;1741767;82;25566;-60
2022/12/03 05:55:25;;;;;;;47.65;24.67;;;;;;;-1.86;83.67;101436.94;1741798;82;25591;-60
2022/12/03 05:57:52;;;;;;;48.83;25.88;;;;;;;-1.87;83.72;101438.79;1741799;82;25843;-61
2022/12/03 06:00:27;;;;;;;51.37;25.43;;;;;;;-1.85;83.79;101438.08;1741817;82;25557;-61
2022/12/03 06:02:55;;;;;;;46.95;25.17;;;;;;;-1.87;83.62;101428.17;1740877;82;27712;-61
2022/12/03 06:05:23;;;;;;;45.48;23.32;;;;;;;-1.86;83.72;101423.16;1741786;82;25632;-61
2022/12/03 06:07:52;;;;;;;50.73;25.17;;;;;;;-1.84;83.72;101437.04;1741819;82;25401;-62
2022/12/03 06:10:22;;;;;;;50.50;26.33;;;;;;;-1.84;83.69;101427.76;1741932;82;26182;-60
2022/12/03 06:12:50;;;;;;;52.55;26.68;;;;;;;-1.83;83.71;101432.58;1740858;82;25565;-60
2022/12/03 06:15:19;;;;;;;51.53;28.05;;;;;;;-1.82;83.75;101435.52;1741834;82;27577;-60
2022/12/03 06:17:46;;;;;;;55.73;28.20;;;;;;;-1.81;83.70;101435.32;1742001;82;25926;-61
2022/12/03 06:20:19;;;;;;;50.10;27.00;;;;;;;-1.82;83.62;101431.05;1741724;82;25594;-61
2022/12/03 06:22:47;;;;;;;48.35;25.82;;;;;;;-1.81;83.70;101425.23;1741817;82;25571;-61
2022/12/03 06:25:16;;;;;;;51.88;27.22;;;;;;;-1.78;83.82;101430.14;1741863;82;25416;-61
2022/12/03 06:27:43;;;;;;;45.67;24.02;;;;;;;-1.78;83.79;101428.81;1741947;82;27536;-61
2022/12/03 06:30:13;;;;;;;47.90;24.90;;;;;;;-1.79;83.75;101429.30;1741758;82;25557;-61
2022/12/03 06:32:40;;;;;;;48.35;25.45;;;;;;;-1.78;83.81;101428.30;1741823;82;25621;-61
2022/12/03 06:35:09;;;;;;;46.58;24.87;;;;;;;-1.77;83.81;101433.09;1741773;82;25579;-61
2022/12/03 06:37:35;;;;;;;50.12;25.52;;;;;;;-1.76;83.77;101431.56;1741781;82;25579;-65
2022/12/03 06:40:02;;;;;;;50.67;24.77;;;;;;;-1.76;83.79;101434.73;1741793;82;27502;-61
2022/12/03 06:42:28;;;;;;;45.15;24.63;;;;;;;-1.78;83.66;101433.60;1741714;82;25611;-61
2022/12/03 06:44:55;;;;;;;47.83;25.37;;;;;;;-1.79;83.68;101432.47;1741937;82;25411;-61
2022/12/03 06:47:21;;;;;;;47.23;25.52;;;;;;;-1.79;83.77;101431.95;1741888;82;25557;-61
2022/12/03 06:49:47;;;;;;;52.33;25.70;;;;;;;-1.82;83.88;101425.75;1741959;82;25362;-61
2022/12/03 06:52:13;;;;;;;50.25;25.75;;;;;;;-1.76;84.01;101432.08;1741980;82;27536;-62
2022/12/03 06:54:40;;;;;;;47.00;25.62;;;;;;;-1.76;83.97;101432.08;1741843;82;25424;-61
2022/12/03 06:57:06;;;;;;;44.60;25.35;;;;;;;-1.74;83.99;101438.00;1741938;82;25565;-60
2022/12/03 06:59:34;;;;;;;47.30;26.42;;;;;;;-1.75;84.05;101434.54;1741867;82;25481;-60
2022/12/03 07:02:01;;;;;;;44.13;24.87;;;;;;;-1.72;84.14;101431.98;1742270;82;25436;-60
2022/12/03 07:04:27;;;;;;;49.13;25.85;;;;;;;-1.69;84.22;101439.55;1741951;82;27463;-60
2022/12/03 07:06:53;;;;;;;47.27;24.75;;;;;;;-1.66;84.31;101448.96;1741851;82;25623;-60
2022/12/03 07:09:19;;;;;;;48.25;25.08;;;;;;;-1.62;84.30;101450.19;1741955;82;25538;-60
2022/12/03 07:11:45;;;;;;;48.15;25.27;;;;;;;-1.63;84.18;101453.36;1741914;82;26210;-60
2022/12/03 07:14:11;;;;;;;47.70;24.23;;;;;;;-1.62;84.23;101447.02;1742016;82;25363;-60
2022/12/03 07:16:41;;;;;;;46.18;25.68;;;;;;;-1.60;84.19;101455.61;1741928;82;27487;-61
2022/12/03 07:19:10;;;;;;;44.38;23.47;;;;;;;-1.58;84.27;101456.23;1742743;82;25604;-61
2022/12/03 07:21:38;;;;;;;51.05;26.52;;;;;;;-1.57;84.27;101451.21;1744449;82;25610;-61
2022/12/03 07:24:06;;;;;;;44.98;25.20;;;;;;;-1.53;84.41;101452.98;1744253;82;27621;-61
2022/12/03 07:26:32;;;;;;;49.35;26.00;;;;;;;-1.55;84.31;101452.34;1744331;82;25572;-60
2022/12/03 07:28:59;;;;;;;46.08;24.05;;;;;;;-1.53;84.29;101453.80;1744290;82;27557;-60
2022/12/03 07:31:25;;;;;;;44.50;23.77;;;;;;;-1.51;84.31;101456.25;1744192;82;25368;-60
2022/12/03 07:33:52;;;;;;;47.53;25.85;;;;;;;-1.52;84.33;101455.93;1744264;82;25186;-60
2022/12/03 07:36:21;;;;;;;50.73;25.97;;;;;;;-1.49;84.43;101452.07;1744310;82;25614;-63
2022/12/03 07:38:49;;;;;;;49.17;25.27;;;;;;;-1.45;84.45;101444.00;1744647;82;25393;-61
2022/12/03 07:41:16;;;;;;;49.83;26.02;;;;;;;-1.45;84.45;101444.00;1744500;82;28656;-60
2022/12/03 07:43:47;;;;;;;45.70;25.23;;;;;;;-1.43;84.56;101445.95;1744280;82;25190;-59
2022/12/03 07:46:13;;;;;;;34.20;20.23;;;;;;;-1.41;84.53;101441.28;1744574;82;25178;-59
2022/12/03 07:48:41;;;;;;;49.15;28.12;;;;;;;-1.40;84.58;101441.56;1744328;82;25826;-59
2022/12/03 07:51:10;;;;;;;51.48;27.77;;;;;;;-1.39;84.65;101434.73;1744374;82;25210;-59
2022/12/03 07:53:37;;;;;;;53.87;29.35;;;;;;;-1.38;84.76;101428.42;1744494;82;27469;-60
2022/12/03 07:56:07;;;;;;;61.63;30.37;;;;;;;-1.37;84.90;101436.67;1744238;82;25463;-60
2022/12/03 07:58:37;;;;;;;51.50;29.15;;;;;;;-1.32;84.88;101434.75;1744380;82;25387;-60
2022/12/03 08:01:06;;;;;;;53.00;29.18;;;;;;;-1.30;84.94;101435.36;1744308;82;26201;-60
2022/12/03 08:03:33;;;;;;;;;;;;;;;-1.28;84.97;101435.97;1746992;82;25541;-60
2022/12/03 08:05:59;;;;;;;53.58;29.23;;;;;;;-1.27;84.97;101438.94;1744306;82;27493;-59
2022/12/03 08:08:26;;;;;;;53.78;30.23;;;;;;;-1.26;85.02;101438.42;1744171;82;25687;-61
2022/12/03 08:10:54;;;;;;;55.10;29.72;;;;;;;-1.23;85.09;101438.03;1744307;82;25845;-60
2022/12/03 08:13:21;;;;;;;52.90;29.52;;;;;;;-1.22;85.12;101435.69;1744224;82;25523;-62
2022/12/03 08:15:47;;;;;;;52.78;29.25;;;;;;;-1.21;85.15;101440.80;1712225;82;25446;-60
2022/12/03 08:18:19;;;;;;;50.17;28.12;;;;;;;-1.18;85.18;101437.72;1744236;82;27655;-61
2022/12/03 08:20:52;;;;;;;50.08;28.47;;;;;;;-1.15;85.25;101439.16;1744120;82;25528;-60
2022/12/03 08:23:23;;;;;;;54.67;29.25;;;;;;;-1.15;85.21;101432.01;1744222;82;25531;-61
2022/12/03 08:25:53;;;;;;;49.77;28.32;;;;;;;-1.12;85.28;101424.16;1744229;82;25575;-59
2022/12/03 08:28:25;;;;;;;54.53;28.62;;;;;;;-1.11;85.19;101435.59;1744179;82;25555;-59
2022/12/03 08:31:03;;;;;;;51.77;29.02;;;;;;;-1.11;85.21;101436.40;1744269;82;27854;-63
2022/12/03 08:33:35;;;;;;;52.30;30.10;;;;;;;-1.09;85.36;101437.03;1742901;82;25380;-63
2022/12/03 08:36:15;;;;;;;50.43;29.07;;;;;;;-1.07;85.58;101431.49;1744229;82;25378;-62
2022/12/03 08:39:04;;;;;;;38.33;24.25;;;;;;;-1.06;85.70;101434.47;1744372;82;25617;-63
2022/12/03 08:44:21;;;;;;;54.45;28.23;;;;;;;-1.00;85.81;101438.45;1744289;82;27483;-65
2022/12/03 08:46:54;;;;;;;56.55;30.62;;;;;;;-0.98;85.71;101435.60;1744105;82;25641;-63
2022/12/03 08:49:22;;;;;;;52.78;29.42;;;;;;;-0.98;85.74;101432.42;1738546;82;25640;-64
2022/12/03 08:51:56;;;;;;;51.73;28.75;;;;;;;-0.97;85.82;101433.23;1744139;82;25493;-64
2022/12/03 08:54:26;;;;;;;54.38;29.15;;;;;;;-0.92;85.93;101431.30;1744299;82;25557;-65
2022/12/03 08:56:55;;;;;;;50.40;29.12;;;;;;;-0.91;85.91;101431.10;1744230;82;27638;-65
2022/12/03 08:59:30;;;;;;;49.83;28.10;;;;;;;-0.89;85.88;101433.03;1711590;82;25607;-65
2022/12/03 09:02:00;;;;;;;54.10;30.25;;;;;;;-0.87;85.97;101433.67;1744287;82;25617;-66
2022/12/03 09:04:48;;;;;;;49.03;26.87;;;;;;;-0.84;86.00;101435.89;1744180;82;25599;-65
2022/12/03 09:07:14;;;;;;;51.50;27.42;;;;;;;-0.82;86.15;101431.22;1744229;82;25553;-66
2022/12/03 09:09:43;;;;;;;49.50;27.32;;;;;;;-0.77;86.00;101434.08;1744180;82;27114;-63
2022/12/03 09:12:10;;;;;;;51.88;27.75;;;;;;;-0.75;86.03;101427.20;1744259;82;26104;-65
2022/12/03 09:14:36;;;;;;;51.33;27.73;;;;;;;-0.73;86.18;101427.84;1744155;82;25750;-63
2022/12/03 09:17:03;;;;;;;49.83;28.80;;;;;;;-0.68;86.24;101431.18;1742922;82;25625;-63
2022/12/03 09:19:31;;;;;;;49.27;28.07;;;;;;;-0.66;86.20;101424.66;1743161;82;26020;-63
2022/12/03 09:21:59;;;;;;;53.40;28.80;;;;;;;-0.63;85.99;101420.75;1743579;82;29715;-63
2022/12/03 09:24:25;;;;;;;52.53;29.27;;;;;;;-0.61;86.11;101412.08;1743296;82;25645;-63
2022/12/03 09:26:51;;;;;;;55.10;29.23;;;;;;;-0.57;86.26;101418.61;1743326;82;25818;-63
2022/12/03 09:29:18;;;;;;;54.58;28.45;;;;;;;-0.53;86.09;101422.99;1743329;82;27754;-62
2022/12/03 09:31:44;;;;;;;59.10;32.17;;;;;;;-0.53;85.80;101424.33;1743953;82;25560;-62
2022/12/03 09:34:10;;;;;;;61.45;35.75;;;;;;;-0.51;85.98;101422.27;1744194;82;27489;-63
2022/12/03 09:36:37;;;;;;;59.88;34.67;;;;;;;-0.47;86.05;101419.00;1744054;82;25443;-62
2022/12/03 09:39:05;;;;;;;66.77;34.08;;;;;;;-0.44;86.25;101413.27;1744196;81;25391;-62
2022/12/03 09:41:36;;;;;;;57.15;30.88;;;;;;;-0.38;86.48;101412.42;1744094;82;25565;-62
2022/12/03 09:44:04;;;;;;;54.63;30.75;;;;;;;-0.33;86.42;101400.36;1744242;82;25470;-62
2022/12/03 09:46:34;;;;;;;54.03;31.00;;;;;;;-0.28;86.36;101404.53;1744185;82;27485;-62
2022/12/03 09:49:04;;;;;;;58.08;31.37;;;;;;;-0.25;86.34;101406.27;1744077;82;25411;-62
2022/12/03 09:51:34;;;;;;;60.45;32.23;;;;;;;-0.22;86.26;101395.21;1744223;82;25604;-62
2022/12/03 09:54:05;;;;;;;56.70;31.42;;;;;;;-0.20;86.18;101395.00;1744164;82;26091;-61
2022/12/03 09:56:37;;;;;;;56.33;31.00;;;;;;;-0.16;86.20;101398.86;1744252;82;25423;-62
2022/12/03 09:59:13;;;;;;;58.25;32.08;;;;;;;-0.14;85.88;101390.67;1744230;82;27619;-62
2022/12/03 10:01:41;;;;;;;54.27;32.25;;;;;;;-0.12;85.92;101388.62;1744132;82;25403;-62
2022/12/03 10:04:09;;;;;;;59.35;34.05;;;;;;;-0.12;85.81;101389.95;1744223;82;25570;-61
2022/12/03 10:06:39;;;;;;;64.30;33.63;;;;;;;-0.12;85.72;101391.28;1744247;82;25509;-62
2022/12/03 10:09:06;;;;;;;57.73;33.45;;;;;;;-0.09;85.78;101397.51;1744317;82;25395;-62
2022/12/03 10:11:36;;;;;;;56.85;32.50;;;;;;;-0.09;85.65;101400.98;1744270;82;28156;-61
2022/12/03 10:14:06;;;;;;;57.62;33.23;;;;;;;-0.09;85.77;101395.66;1744053;82;27396;-63
2022/12/03 10:16:35;;;;;;;63.63;33.73;;;;;;;-0.06;85.93;101396.57;1744200;82;25449;-63
2022/12/03 10:19:02;;;;;;;61.05;32.70;;;;;;;-0.03;85.83;101396.68;1744148;82;26237;-63
2022/12/03 10:21:37;;;;;;;65.00;35.43;;;;;;;-0.01;86.03;101390.10;1744229;82;25545;-63
2022/12/03 10:24:35;;;;;;;63.00;33.67;;;;;;;0.06;86.35;101387.41;1744379;82;27600;-65
2022/12/03 10:27:06;;;;;;;61.33;31.55;;;;;;;0.14;86.58;101387.70;1744269;82;25864;-63
2022/12/03 10:29:35;;;;;;;56.90;31.95;;;;;;;0.17;85.82;101384.59;1742799;82;25435;-63
2022/12/03 10:32:09;;;;;;;55.43;32.55;;;;;;;0.21;86.03;101377.02;1744377;82;25906;-63
2022/12/03 10:34:44;;;;;;;61.85;33.80;;;;;;;0.34;86.98;101376.92;1744394;82;25456;-63
2022/12/03 10:37:22;;;;;;;64.62;34.33;;;;;;;0.51;87.95;101375.89;1744477;82;27611;-63
2022/12/03 10:40:00;;;;;;;63.25;34.03;;;;;;;0.67;87.69;101379.37;1744253;82;25448;-64
2022/12/03 10:42:31;;;;;;;60.15;33.42;;;;;;;0.79;87.31;101384.02;1744444;82;25388;-63
2022/12/03 10:45:22;;;;;;;56.18;31.33;;;;;;;0.86;86.86;101380.25;1744250;82;27692;-63
2022/12/03 10:48:25;;;;;;;63.70;32.98;;;;;;;0.95;86.82;101377.32;1744365;82;25390;-63
2022/12/03 10:51:07;;;;;;;56.83;31.80;;;;;;;0.99;86.04;101371.34;1744249;82;27512;-63
2022/12/03 10:53:37;;;;;;;53.98;29.15;;;;;;;1.04;85.94;101370.67;1744267;82;25718;-62
2022/12/03 10:56:12;;;;;;;54.00;30.27;;;;;;;0.98;84.89;101372.37;1744300;82;25447;-62
2022/12/03 10:58:41;;;;;;;53.10;28.90;;;;;;;0.94;84.53;101381.84;1744265;82;25498;-58
2022/12/03 11:01:19;;;;;;;59.50;31.00;;;;;;;0.90;84.29;101381.96;1744225;82;25401;-59
2022/12/03 11:03:47;;;;;;;54.10;28.85;;;;;;;0.82;84.08;101371.08;1743595;82;27454;-60
2022/12/03 11:06:19;;;;;;;54.33;27.42;;;;;;;0.80;84.07;101385.63;1744185;82;25591;-60
2022/12/03 11:08:50;;;;;;;57.43;29.63;;;;;;;0.73;83.95;101375.86;1743695;82;25617;-60
2022/12/03 11:11:22;;;;;;;48.23;27.60;;;;;;;0.71;84.24;101371.77;1744319;82;25575;-61
2022/12/03 11:14:00;;;;;;;55.10;27.67;;;;;;;0.68;84.00;101370.86;1744308;82;25409;-60
2022/12/03 11:16:44;;;;;;;54.05;27.95;;;;;;;0.63;84.08;101366.20;1743659;82;27791;-62
2022/12/03 11:19:19;;;;;;;50.73;27.95;;;;;;;0.60;84.09;101359.17;1744311;82;25740;-60
2022/12/03 11:22:09;;;;;;;52.33;27.77;;;;;;;0.56;83.98;101366.75;1714768;82;25381;-60
2022/12/03 11:24:41;;;;;;;48.55;25.90;;;;;;;0.52;84.15;101365.03;1710767;83;25616;-60
2022/12/03 11:27:18;;;;;;;47.48;26.85;;;;;;;0.49;84.27;101350.81;1710759;83;25626;-60
2022/12/03 11:30:00;;;;;;;52.65;26.87;;;;;;;0.49;84.58;101354.81;1710877;83;27537;-58
2022/12/03 11:32:48;;;;;;;49.85;26.45;;;;;;;0.49;84.50;101360.13;1710740;83;25718;-59
2022/12/03 11:35:26;;;;;;;53.78;27.80;;;;;;;0.45;84.29;101357.61;1708346;83;25358;-60
2022/12/03 11:37:52;;;;;;;49.40;27.02;;;;;;;0.42;84.40;101349.25;1710902;83;25641;-59
2022/12/03 11:40:24;;;;;;;52.65;26.85;;;;;;;0.43;84.63;101364.20;1709731;83;27375;-60
2022/12/03 11:42:50;;;;;;;53.60;27.20;;;;;;;0.41;84.60;101357.76;1709592;83;27635;-59